Time;durP1;ratioP1;P1;durP2;ratioP2;P2;SDS_P1;SDS_P2;PMS_P1;PMS_P2;Temp;Humidity;BMP_temperature;BMP_pressure;BME280_temperature;BME280_humidity;BME280_pressure;Samples;Min_cycle;Max_cycle;Signal;HPM_P1;HPM_P2
2023/07/19 00:02:15;;;;;;;7.32;4.55;;;;;;;29.38;42.45;99681.09;5160616;27;20221;-63
2023/07/19 00:04:40;;;;;;;5.50;4.30;;;;;;;29.36;42.32;99683.28;5159966;27;20036;-63
2023/07/19 00:07:06;;;;;;;7.47;5.10;;;;;;;29.33;42.56;99672.13;5160597;27;20041;-64
2023/07/19 00:09:31;;;;;;;5.78;4.78;;;;;;;29.16;42.94;99673.38;5160266;27;20262;-63
2023/07/19 00:11:57;;;;;;;5.25;4.75;;;;;;;29.24;42.50;99667.31;5160331;27;20031;-64
2023/07/19 00:14:22;;;;;;;4.93;4.40;;;;;;;29.19;42.65;99653.72;5159997;27;20043;-63
2023/07/19 00:16:48;;;;;;;6.70;4.78;;;;;;;29.16;42.98;99658.94;5159694;27;20045;-64
2023/07/19 00:19:13;;;;;;;8.45;4.35;;;;;;;29.10;42.85;99655.41;5160459;27;20327;-63
2023/07/19 00:21:38;;;;;;;5.18;4.68;;;;;;;29.12;42.72;99655.13;5160471;27;20383;-63
2023/07/19 00:24:04;;;;;;;5.70;4.80;;;;;;;29.15;42.79;99660.84;5160442;27;20034;-63
2023/07/19 00:26:30;;;;;;;7.80;4.55;;;;;;;29.12;42.58;99657.84;5159371;27;20115;-64
2023/07/19 00:28:55;;;;;;;5.95;4.85;;;;;;;29.03;42.64;99654.91;5160119;27;20052;-63
2023/07/19 00:31:21;;;;;;;5.85;4.45;;;;;;;29.03;42.97;99663.09;5159804;27;20046;-63
2023/07/19 00:33:46;;;;;;;6.50;4.28;;;;;;;28.98;42.85;99662.31;5159581;27;20041;-64
2023/07/19 00:36:12;;;;;;;10.80;4.85;;;;;;;28.79;43.75;99664.91;5159927;27;20038;-64
2023/07/19 00:38:38;;;;;;;5.95;4.78;;;;;;;28.95;43.53;99662.91;5159726;27;20038;-63
2023/07/19 00:41:03;;;;;;;5.97;4.30;;;;;;;28.95;43.20;99663.72;5159169;27;20043;-64
2023/07/19 00:43:29;;;;;;;5.65;4.10;;;;;;;28.89;43.35;99656.69;5159389;27;20220;-64
2023/07/19 00:45:55;;;;;;;5.35;4.35;;;;;;;28.91;43.64;99654.47;5160229;27;20030;-63
2023/07/19 00:48:21;;;;;;;5.65;4.55;;;;;;;28.83;43.96;99661.34;5159729;27;20043;-63
2023/07/19 00:50:52;;;;;;;5.78;4.57;;;;;;;28.91;43.66;99662.66;5160079;27;20031;-63
2023/07/19 00:53:18;;;;;;;4.88;4.38;;;;;;;28.92;43.60;99651.47;5159766;27;20079;-63
2023/07/19 00:55:51;;;;;;;5.45;4.40;;;;;;;28.87;43.73;99659.69;5159779;27;20906;-63
2023/07/19 00:58:18;;;;;;;6.00;4.45;;;;;;;28.88;44.00;99655.03;5159144;27;20151;-64
2023/07/19 01:00:44;;;;;;;4.53;4.13;;;;;;;28.86;44.15;99657.25;5159787;27;20031;-63
2023/07/19 01:03:10;;;;;;;5.22;4.45;;;;;;;28.75;44.36;99653.75;5160349;27;20097;-64
2023/07/19 01:05:36;;;;;;;5.50;4.43;;;;;;;28.72;44.71;99662.50;5160173;27;20035;-63
2023/07/19 01:08:02;;;;;;;7.05;4.93;;;;;;;28.66;44.89;99658.19;5163198;27;20246;-63
2023/07/19 01:10:27;;;;;;;5.53;4.82;;;;;;;28.77;44.69;99662.47;5163178;27;20042;-63
2023/07/19 01:13:06;;;;;;;7.43;4.47;;;;;;;28.76;44.44;99646.38;5163819;27;20027;-64
2023/07/19 01:15:32;;;;;;;5.65;4.43;;;;;;;28.73;44.81;99655.13;5163204;27;20083;-63
2023/07/19 01:17:58;;;;;;;6.13;4.50;;;;;;;28.74;44.47;99652.13;5162933;27;20097;-63
2023/07/19 01:20:23;;;;;;;7.35;5.15;;;;;;;28.75;44.58;99645.56;5163632;27;20303;-64
2023/07/19 01:22:49;;;;;;;6.05;4.55;;;;;;;28.80;44.59;99655.63;5163401;27;20038;-64
2023/07/19 01:25:14;;;;;;;7.45;5.07;;;;;;;28.84;44.78;99646.63;5164029;27;20038;-63
2023/07/19 01:27:40;;;;;;;6.57;5.35;;;;;;;28.84;44.75;99656.72;5162690;27;20336;-64
2023/07/19 01:30:06;;;;;;;7.15;5.38;;;;;;;28.80;45.04;99661.06;5162633;27;20352;-64
2023/07/19 01:32:32;;;;;;;5.68;4.22;;;;;;;28.82;45.19;99661.59;5163485;27;20420;-64
2023/07/19 01:34:57;;;;;;;6.35;4.85;;;;;;;28.78;45.20;99660.53;5163152;27;20043;-65
2023/07/19 01:37:23;;;;;;;6.30;4.43;;;;;;;28.75;45.33;99669.28;5162752;27;20084;-63
2023/07/19 01:39:49;;;;;;;5.75;4.43;;;;;;;28.67;45.62;99659.00;5163195;27;20040;-63
2023/07/19 01:42:16;;;;;;;6.45;4.80;;;;;;;28.62;45.72;99657.13;5163855;27;20050;-63
2023/07/19 01:44:42;;;;;;;6.20;4.43;;;;;;;28.57;45.85;99660.69;5162981;27;20106;-63
2023/07/19 01:47:07;;;;;;;6.43;4.68;;;;;;;28.55;45.91;99651.16;5163430;27;20030;-63
2023/07/19 01:49:33;;;;;;;6.95;5.32;;;;;;;28.56;45.60;99660.97;5162848;27;20041;-63
2023/07/19 01:51:58;;;;;;;7.18;5.32;;;;;;;28.54;45.78;99655.00;5162960;27;20250;-63
2023/07/19 01:54:24;;;;;;;8.93;5.72;;;;;;;28.51;45.99;99661.81;5162850;27;20274;-63
2023/07/19 01:56:49;;;;;;;8.57;4.70;;;;;;;28.46;45.99;99653.69;5162814;27;20186;-63
2023/07/19 01:59:14;;;;;;;6.65;5.30;;;;;;;28.44;45.85;99650.41;5162788;27;20433;-63
2023/07/19 02:01:40;;;;;;;8.00;5.32;;;;;;;28.47;45.77;99649.03;5162968;27;20351;-63
2023/07/19 02:04:05;;;;;;;7.65;5.90;;;;;;;28.46;46.02;99652.88;5163499;27;20238;-64
2023/07/19 02:06:31;;;;;;;8.38;6.05;;;;;;;28.43;46.13;99653.44;5162964;27;20320;-63
2023/07/19 02:08:56;;;;;;;8.88;5.03;;;;;;;28.42;46.13;99647.16;5162705;27;20079;-63
2023/07/19 02:11:22;;;;;;;8.02;5.22;;;;;;;28.38;46.36;99654.28;5162382;27;20082;-64
2023/07/19 02:13:47;;;;;;;7.32;5.28;;;;;;;28.34;46.34;99657.84;5162045;27;20038;-63
2023/07/19 02:16:13;;;;;;;7.70;6.47;;;;;;;28.31;46.30;99653.75;5162427;27;20042;-63
2023/07/19 02:18:38;;;;;;;9.05;6.05;;;;;;;28.33;46.35;99657.03;5160955;27;20027;-63
2023/07/19 02:21:04;;;;;;;5.95;5.15;;;;;;;28.36;46.32;99661.09;5162532;27;20043;-63
2023/07/19 02:23:29;;;;;;;7.97;5.88;;;;;;;28.37;46.06;99658.09;5162295;27;20045;-65
2023/07/19 02:25:55;;;;;;;34.15;26.15;;;;;;;28.38;46.01;99658.91;5162072;27;20098;-63
2023/07/19 02:28:20;;;;;;;123.25;74.60;;;;;;;28.36;46.05;99664.63;5162561;27;20063;-63
2023/07/19 02:30:46;;;;;;;11.25;7.28;;;;;;;28.29;46.18;99654.03;5162235;27;20343;-64
2023/07/19 02:33:13;;;;;;;5.85;5.05;;;;;;;28.38;46.04;99657.00;5162947;27;20031;-64
2023/07/19 02:35:39;;;;;;;11.18;7.78;;;;;;;28.49;46.08;99657.75;5162129;27;20066;-64
2023/07/19 02:38:05;;;;;;;12.35;11.05;;;;;;;28.56;46.01;99674.59;5161963;27;20027;-64
2023/07/19 02:40:30;;;;;;;9.90;8.63;;;;;;;28.56;45.70;99659.06;5161523;27;20118;-64
2023/07/19 02:42:56;;;;;;;8.25;7.35;;;;;;;28.59;45.90;99663.13;5161243;27;20030;-66
2023/07/19 02:45:23;;;;;;;6.80;6.10;;;;;;;28.56;45.50;99664.50;5162091;27;20049;-64
2023/07/19 02:47:48;;;;;;;8.25;7.32;;;;;;;28.55;45.60;99662.88;5161709;27;20034;-64
2023/07/19 02:50:14;;;;;;;8.80;6.93;;;;;;;28.50;45.88;99665.63;5162018;27;20232;-64
2023/07/19 02:52:39;;;;;;;7.75;6.50;;;;;;;28.43;46.26;99669.75;5161697;27;20090;-65
2023/07/19 02:55:05;;;;;;;8.55;6.40;;;;;;;28.42;46.61;99663.50;5162002;27;20022;-64
2023/07/19 02:57:30;;;;;;;7.35;5.68;;;;;;;28.46;46.44;99656.41;5161190;27;20130;-63
2023/07/19 02:59:56;;;;;;;6.47;5.75;;;;;;;28.47;46.45;99655.31;5161540;27;20027;-63
2023/07/19 03:02:21;;;;;;;14.50;6.13;;;;;;;28.48;46.46;99661.56;5130083;27;20261;-63
2023/07/19 03:04:48;;;;;;;8.75;7.10;;;;;;;28.43;46.34;99665.13;5141290;27;20329;-62
2023/07/19 03:07:13;;;;;;;7.60;5.20;;;;;;;28.37;46.68;99670.88;5140678;27;20042;-63
2023/07/19 03:09:38;;;;;;;8.73;5.57;;;;;;;28.30;46.90;99660.31;5122116;27;20043;-63
2023/07/19 03:12:04;;;;;;;9.38;6.82;;;;;;;28.25;47.13;99665.78;5140771;27;20058;-63
2023/07/19 03:14:30;;;;;;;9.15;5.80;;;;;;;28.19;47.61;99667.69;5140587;27;20023;-63
2023/07/19 03:16:55;;;;;;;14.93;6.30;;;;;;;28.20;47.58;99668.50;5141199;27;20258;-62
2023/07/19 03:19:21;;;;;;;8.48;5.05;;;;;;;28.04;47.94;99672.34;5140596;27;20272;-63
2023/07/19 03:21:46;;;;;;;9.05;5.25;;;;;;;27.82;48.63;99670.78;5140962;27;20262;-63
2023/07/19 03:24:12;;;;;;;12.55;5.40;;;;;;;27.90;48.62;99678.38;5139988;27;20042;-63
2023/07/19 03:26:38;;;;;;;8.75;5.50;;;;;;;27.90;48.47;99683.81;5139535;27;20067;-62
2023/07/19 03:29:03;;;;;;;8.88;5.57;;;;;;;27.85;48.71;99680.31;5140173;27;20042;-62
2023/07/19 03:31:29;;;;;;;9.10;5.03;;;;;;;27.58;49.33;99676.00;5140626;27;20046;-63
2023/07/19 03:33:54;;;;;;;8.85;5.30;;;;;;;27.55;49.92;99683.91;5140197;27;20034;-63
2023/07/19 03:36:19;;;;;;;7.22;5.03;;;;;;;27.54;50.00;99685.81;5140496;27;20046;-63
2023/07/19 03:38:45;;;;;;;8.90;5.70;;;;;;;27.62;50.33;99677.09;5140433;27;20031;-62
2023/07/19 03:41:11;;;;;;;7.25;5.15;;;;;;;27.47;50.85;99668.13;5139857;27;20037;-63
2023/07/19 03:43:37;;;;;;;9.27;5.43;;;;;;;27.68;50.38;99677.91;5139876;27;20035;-63
2023/07/19 03:46:05;;;;;;;9.32;5.50;;;;;;;27.77;50.42;99670.00;5140128;27;20039;-63
2023/07/19 03:48:30;;;;;;;8.48;4.75;;;;;;;27.91;50.18;99679.19;5139800;27;20045;-63
2023/07/19 03:51:00;;;;;;;9.38;5.30;;;;;;;27.82;50.82;99672.69;5139930;27;20294;-63
2023/07/19 03:53:26;;;;;;;9.05;5.30;;;;;;;27.87;50.63;99670.78;5139508;27;20035;-63
2023/07/19 03:55:55;;;;;;;8.90;5.55;;;;;;;27.96;50.52;99673.75;5139612;27;20062;-64
2023/07/19 03:58:24;;;;;;;13.93;5.78;;;;;;;28.01;50.77;99673.72;5139899;27;20106;-63
2023/07/19 04:00:54;;;;;;;7.72;5.43;;;;;;;28.02;50.55;99664.47;5139068;27;20080;-63
2023/07/19 04:03:20;;;;;;;8.45;5.72;;;;;;;28.02;50.70;99658.19;5139468;27;20054;-63
2023/07/19 04:05:46;;;;;;;8.50;5.95;;;;;;;28.09;50.75;99656.00;5139136;27;20067;-64
2023/07/19 04:08:14;;;;;;;8.50;5.40;;;;;;;28.04;51.14;99654.13;5139922;27;20043;-63
2023/07/19 04:10:39;;;;;;;9.13;5.35;;;;;;;28.12;50.72;99658.19;5139734;27;20082;-63
2023/07/19 04:13:04;;;;;;;12.50;7.55;;;;;;;28.09;50.90;99654.13;5139702;27;20328;-63
2023/07/19 04:15:30;;;;;;;12.77;8.10;;;;;;;28.10;50.85;99649.50;5139435;27;20325;-64
2023/07/19 04:17:56;;;;;;;8.55;7.00;;;;;;;28.12;51.23;99652.75;5139535;27;20023;-63
2023/07/19 04:20:22;;;;;;;11.65;5.63;;;;;;;27.85;51.87;99658.53;5139758;27;20234;-63
2023/07/19 04:22:48;;;;;;;8.07;5.95;;;;;;;27.81;52.55;99650.13;5139353;27;20213;-63
2023/07/19 04:25:14;;;;;;;9.35;5.95;;;;;;;27.94;52.11;99649.53;5139597;27;20073;-63
2023/07/19 04:27:39;;;;;;;9.00;6.88;;;;;;;28.11;51.59;99653.84;5138633;27;20103;-63
2023/07/19 04:30:06;;;;;;;8.57;6.10;;;;;;;27.90;52.26;99645.72;5138949;27;20043;-63
2023/07/19 04:32:31;;;;;;;12.18;6.38;;;;;;;27.98;52.10;99655.22;5139090;27;20059;-63
2023/07/19 04:34:58;;;;;;;10.73;6.25;;;;;;;28.11;51.63;99656.56;5139485;27;20064;-63
2023/07/19 04:37:23;;;;;;;8.75;6.38;;;;;;;28.28;51.32;99655.13;5139453;27;20035;-64
2023/07/19 04:39:49;;;;;;;11.00;6.88;;;;;;;28.51;50.64;99650.91;5139527;27;20079;-64
2023/07/19 04:42:16;;;;;;;7.70;6.28;;;;;;;28.49;50.70;99644.94;5138823;27;20035;-63
2023/07/19 04:44:41;;;;;;;10.25;6.97;;;;;;;28.70;50.51;99647.53;5139264;27;20102;-64
2023/07/19 04:47:09;;;;;;;10.70;7.05;;;;;;;28.76;49.99;99639.03;5139569;27;20071;-63
2023/07/19 04:49:34;;;;;;;11.00;7.47;;;;;;;29.04;49.29;99653.81;5138820;27;20043;-63
2023/07/19 04:51:59;;;;;;;10.88;6.82;;;;;;;29.11;48.75;99646.13;5138609;27;20046;-63
2023/07/19 04:54:25;;;;;;;9.90;7.43;;;;;;;29.30;48.91;99656.34;5139171;27;20043;-64
2023/07/19 04:56:50;;;;;;;10.55;6.72;;;;;;;29.40;48.55;99648.06;5139448;27;20035;-63
2023/07/19 04:59:16;;;;;;;10.02;7.20;;;;;;;29.49;48.61;99633.53;5139382;27;20053;-63
2023/07/19 05:01:43;;;;;;;9.65;6.10;;;;;;;29.50;47.53;99648.81;5139426;27;20049;-64
2023/07/19 05:04:08;;;;;;;10.70;6.80;;;;;;;29.73;47.98;99647.19;5139488;27;20057;-63
2023/07/19 05:06:34;;;;;;;9.25;6.25;;;;;;;29.90;46.99;99646.72;5138891;27;20043;-64
2023/07/19 05:08:59;;;;;;;11.60;7.03;;;;;;;30.12;46.62;99662.56;5138326;27;20037;-63
2023/07/19 05:11:25;;;;;;;9.38;6.25;;;;;;;30.25;46.27;99661.88;5138737;27;20043;-63
2023/07/19 05:13:51;;;;;;;11.38;7.05;;;;;;;30.43;46.25;99652.88;5138575;27;20034;-63
2023/07/19 05:16:16;;;;;;;11.90;7.18;;;;;;;30.64;45.01;99655.34;5139299;27;20438;-63
2023/07/19 05:18:42;;;;;;;10.55;7.15;;;;;;;30.59;45.05;99658.97;5138727;27;20084;-64
2023/07/19 05:21:07;;;;;;;12.93;6.82;;;;;;;30.64;44.83;99664.34;5139187;27;20031;-64
2023/07/19 05:23:33;;;;;;;14.73;7.70;;;;;;;30.74;44.77;99663.38;5138897;27;20047;-63
2023/07/19 05:25:58;;;;;;;12.75;7.22;;;;;;;30.95;43.81;99663.88;5138835;27;20061;-63
2023/07/19 05:28:24;;;;;;;11.07;6.20;;;;;;;31.17;43.07;99661.34;5138900;27;20047;-64
2023/07/19 05:30:49;;;;;;;13.27;6.65;;;;;;;31.28;42.93;99665.56;5138572;27;20062;-64
2023/07/19 05:33:15;;;;;;;12.38;5.95;;;;;;;31.32;43.09;99657.56;5138951;27;20229;-63
2023/07/19 05:35:42;;;;;;;7.80;5.20;;;;;;;31.48;42.13;99660.81;5138797;27;20213;-64
2023/07/19 05:38:08;;;;;;;7.88;5.28;;;;;;;31.46;42.15;99663.88;5138417;27;20050;-64
2023/07/19 05:40:33;;;;;;;13.85;5.53;;;;;;;31.59;41.32;99665.00;5138574;27;20054;-64
2023/07/19 05:42:59;;;;;;;11.85;5.78;;;;;;;31.75;41.96;99658.94;5138433;27;20043;-63
2023/07/19 05:45:24;;;;;;;10.18;5.57;;;;;;;31.73;41.40;99658.44;5138376;27;20343;-64
2023/07/19 05:47:50;;;;;;;8.52;4.93;;;;;;;31.85;41.25;99657.94;5138454;27;20039;-64
2023/07/19 05:50:15;;;;;;;9.52;5.60;;;;;;;32.04;41.33;99653.16;5138903;27;20166;-64
2023/07/19 05:52:41;;;;;;;8.93;7.10;;;;;;;32.07;40.15;99659.94;5138706;27;20107;-64
2023/07/19 05:55:07;;;;;;;9.43;5.70;;;;;;;32.24;40.60;99660.16;5142325;27;20031;-64
2023/07/19 05:57:33;;;;;;;10.25;5.40;;;;;;;32.58;39.63;99651.47;5141931;27;20140;-64
2023/07/19 06:00:13;;;;;;;9.02;6.88;;;;;;;32.68;38.71;99655.91;5141741;27;20068;-63
2023/07/19 06:02:39;;;;;;;8.85;6.25;;;;;;;32.86;39.46;99659.59;5141748;27;20050;-65
2023/07/19 06:05:06;;;;;;;9.25;6.93;;;;;;;33.03;40.02;99656.19;5142145;27;20035;-64
2023/07/19 06:07:32;;;;;;;11.43;8.00;;;;;;;33.22;37.93;99665.00;5141692;27;20027;-64
2023/07/19 06:09:58;;;;;;;12.10;8.68;;;;;;;33.35;37.78;99661.44;5142192;27;20201;-64
2023/07/19 06:12:23;;;;;;;18.60;15.35;;;;;;;33.52;37.38;99661.50;5141318;27;20031;-63
2023/07/19 06:14:49;;;;;;;16.98;13.57;;;;;;;33.54;36.40;99652.97;5142259;27;20034;-63
2023/07/19 06:17:14;;;;;;;17.48;14.95;;;;;;;33.70;36.72;99647.84;5141775;27;20562;-62
2023/07/19 06:19:40;;;;;;;24.00;19.30;;;;;;;33.73;35.78;99650.78;5142280;27;20049;-63
2023/07/19 06:22:05;;;;;;;14.63;11.00;;;;;;;33.96;35.72;99643.28;5142292;27;20225;-63
2023/07/19 06:24:31;;;;;;;17.10;10.93;;;;;;;34.00;35.56;99641.50;5141649;27;20042;-63
2023/07/19 06:26:56;;;;;;;17.70;13.73;;;;;;;34.11;35.05;99647.50;5141401;27;20043;-63
2023/07/19 06:29:22;;;;;;;16.92;12.23;;;;;;;33.97;35.58;99642.16;5141544;27;20039;-63
2023/07/19 06:31:48;;;;;;;14.13;10.98;;;;;;;34.12;35.00;99640.88;5141636;27;20035;-63
2023/07/19 06:34:13;;;;;;;12.70;9.88;;;;;;;34.31;35.15;99643.34;5141363;27;20336;-63
2023/07/19 06:36:39;;;;;;;11.50;9.30;;;;;;;34.31;34.27;99643.34;5141243;27;20031;-63
2023/07/19 06:39:04;;;;;;;11.75;8.52;;;;;;;34.23;34.35;99643.00;5141226;27;20051;-63
2023/07/19 06:41:30;;;;;;;13.75;8.25;;;;;;;34.37;34.43;99634.69;5141172;27;20063;-63
2023/07/19 06:43:57;;;;;;;9.45;8.32;;;;;;;34.62;33.75;99635.81;5141125;27;20038;-62
2023/07/19 06:46:22;;;;;;;11.38;8.52;;;;;;;34.75;33.07;99634.81;5140910;27;20100;-62
2023/07/19 06:48:48;;;;;;;9.82;7.88;;;;;;;35.08;32.72;99635.13;5141172;27;20316;-62
2023/07/19 06:51:13;;;;;;;11.02;7.65;;;;;;;35.35;31.72;99625.69;5140896;27;20240;-63
2023/07/19 06:53:39;;;;;;;10.43;7.95;;;;;;;35.55;31.46;99635.19;5141389;27;20035;-63
2023/07/19 06:56:05;;;;;;;11.93;7.70;;;;;;;35.86;31.15;99634.09;5141201;27;20041;-62
2023/07/19 06:58:30;;;;;;;10.05;7.43;;;;;;;36.00;30.56;99631.91;5140820;27;20107;-63
2023/07/19 07:00:56;;;;;;;9.55;7.05;;;;;;;35.97;31.61;99629.81;5141306;27;20035;-62
2023/07/19 07:03:22;;;;;;;8.65;5.95;;;;;;;36.22;29.64;99620.56;5141200;27;20041;-63
2023/07/19 07:05:47;;;;;;;8.93;5.95;;;;;;;36.37;29.36;99619.19;5140212;27;20047;-63
2023/07/19 07:08:13;;;;;;;7.32;6.32;;;;;;;36.57;29.41;99621.16;5141040;27;20046;-64
2023/07/19 07:10:42;;;;;;;6.00;5.20;;;;;;;36.70;28.91;99628.31;5140638;27;20083;-62
2023/07/19 07:13:08;;;;;;;5.43;4.68;;;;;;;36.69;27.91;99621.19;5140147;27;20037;-63
2023/07/19 07:15:33;;;;;;;7.78;5.30;;;;;;;36.84;28.45;99614.28;5140885;27;20039;-62
2023/07/19 07:17:59;;;;;;;7.95;5.30;;;;;;;37.02;28.60;99612.13;5140492;27;20076;-63
2023/07/19 07:20:24;;;;;;;6.28;4.95;;;;;;;37.07;27.63;99612.72;5140862;27;20043;-63
2023/07/19 07:22:50;;;;;;;5.57;5.05;;;;;;;37.26;27.55;99608.66;5140227;27;20067;-63
2023/07/19 07:25:16;;;;;;;6.68;5.10;;;;;;;37.47;26.45;99608.56;5140640;27;20047;-64
2023/07/19 07:27:41;;;;;;;6.63;4.78;;;;;;;37.56;26.20;99610.06;5140140;27;20069;-63
2023/07/19 07:30:10;;;;;;;6.45;4.47;;;;;;;37.65;25.18;99604.44;5140348;27;20340;-63
2023/07/19 07:32:36;;;;;;;7.25;5.25;;;;;;;37.51;25.77;99601.22;5139814;27;20229;-63
2023/07/19 07:35:02;;;;;;;5.63;4.65;;;;;;;37.46;26.88;99601.44;5140242;27;20042;-63
2023/07/19 07:37:28;;;;;;;8.45;5.78;;;;;;;37.68;26.70;99595.44;5140109;27;20118;-63
2023/07/19 07:39:53;;;;;;;7.80;5.15;;;;;;;37.81;26.36;99588.00;5139941;27;20871;-63
2023/07/19 07:42:20;;;;;;;7.60;5.60;;;;;;;36.73;26.79;99583.50;5139839;27;20042;-63
2023/07/19 07:44:46;;;;;;;5.75;5.20;;;;;;;36.28;27.48;99591.69;5140047;27;20058;-64
2023/07/19 07:47:11;;;;;;;5.88;4.95;;;;;;;36.60;27.05;99597.59;5140623;27;20073;-62
2023/07/19 07:49:37;;;;;;;6.90;5.07;;;;;;;36.36;27.26;99601.03;5139783;27;20366;-63
2023/07/19 07:52:03;;;;;;;5.70;5.15;;;;;;;36.22;26.98;99593.00;5139899;27;20034;-63
2023/07/19 07:54:29;;;;;;;5.97;4.85;;;;;;;36.47;28.00;99584.91;5139348;27;20193;-63
2023/07/19 07:56:54;;;;;;;5.38;4.35;;;;;;;36.53;26.21;99587.13;5121476;27;20077;-62
2023/07/19 07:59:20;;;;;;;5.80;4.25;;;;;;;36.35;28.03;99585.63;5140423;27;20043;-63
2023/07/19 08:01:45;;;;;;;6.68;5.38;;;;;;;36.25;27.93;99591.50;5139964;27;20228;-62
2023/07/19 08:04:12;;;;;;;5.57;5.07;;;;;;;36.07;27.77;99583.38;5140266;27;20031;-63
2023/07/19 08:06:38;;;;;;;5.82;5.22;;;;;;;35.77;27.40;99596.34;5139701;27;20266;-62
2023/07/19 08:09:04;;;;;;;6.13;5.20;;;;;;;36.11;26.68;99594.53;5139567;27;20043;-63
2023/07/19 08:11:31;;;;;;;5.13;4.53;;;;;;;36.40;26.47;99594.50;5139733;27;20077;-63
2023/07/19 08:13:57;;;;;;;7.57;4.95;;;;;;;36.44;27.85;99591.91;5139447;27;20039;-63
2023/07/19 08:16:22;;;;;;;6.55;4.95;;;;;;;36.33;26.65;99593.44;5128542;27;20262;-63
2023/07/19 08:18:48;;;;;;;5.90;5.03;;;;;;;36.52;26.30;99588.25;5139858;27;20039;-63
2023/07/19 08:21:13;;;;;;;8.05;5.07;;;;;;;36.74;28.21;99587.88;5139328;27;20041;-63
2023/07/19 08:23:39;;;;;;;6.30;5.68;;;;;;;36.48;26.46;99587.31;5139554;27;20050;-63
2023/07/19 08:26:04;;;;;;;5.93;5.30;;;;;;;36.09;27.91;99585.78;5139162;27;20095;-63
2023/07/19 08:28:30;;;;;;;5.60;4.97;;;;;;;35.85;26.64;99577.38;5139048;27;20241;-64
2023/07/19 08:30:55;;;;;;;5.75;4.70;;;;;;;36.18;26.88;99586.53;5139222;27;20043;-63
2023/07/19 08:33:23;;;;;;;6.10;5.50;;;;;;;36.55;26.12;99573.78;5139296;27;20037;-64
2023/07/19 08:35:51;;;;;;;5.65;5.15;;;;;;;36.61;26.27;99577.94;5139245;27;20381;-64
2023/07/19 08:38:17;;;;;;;6.10;4.85;;;;;;;36.84;27.23;99564.59;5139155;27;20031;-64
2023/07/19 08:40:54;;;;;;;5.57;4.38;;;;;;;36.88;25.68;99564.72;5139248;27;20055;-64
2023/07/19 08:43:20;;;;;;;5.22;4.47;;;;;;;36.79;25.38;99555.72;5139216;27;20046;-64
2023/07/19 08:45:45;;;;;;;4.93;4.53;;;;;;;36.54;27.56;99554.81;5139133;27;20051;-63
2023/07/19 08:48:11;;;;;;;4.32;3.75;;;;;;;36.13;24.86;99550.91;5139382;27;20222;-64
2023/07/19 08:50:38;;;;;;;5.07;4.47;;;;;;;36.15;26.01;99552.19;5139164;27;20050;-64
2023/07/19 08:53:04;;;;;;;6.95;4.35;;;;;;;36.37;24.60;99556.56;5139299;27;20038;-64
2023/07/19 08:55:31;;;;;;;6.28;4.60;;;;;;;36.83;24.88;99543.69;5138899;27;20035;-64
2023/07/19 08:57:56;;;;;;;4.25;3.72;;;;;;;36.36;24.55;99540.38;5139214;27;20084;-64
2023/07/19 09:00:22;;;;;;;4.18;3.78;;;;;;;36.77;24.29;99547.81;5139337;27;20054;-64
2023/07/19 09:02:48;;;;;;;5.35;3.95;;;;;;;37.08;23.89;99536.25;5138751;27;20094;-64
2023/07/19 09:05:14;;;;;;;4.63;3.85;;;;;;;37.35;22.41;99541.13;5139291;27;20034;-64
2023/07/19 09:07:40;;;;;;;4.20;3.80;;;;;;;36.83;23.33;99542.88;5138469;27;20054;-64
2023/07/19 09:10:10;;;;;;;5.60;4.35;;;;;;;36.55;24.07;99532.41;5138888;27;20023;-64
2023/07/19 09:12:40;;;;;;;4.40;3.58;;;;;;;36.87;22.76;99528.03;5138431;27;20031;-64
2023/07/19 09:15:08;;;;;;;4.85;3.90;;;;;;;36.17;25.95;99531.75;5138884;27;20038;-64
2023/07/19 09:17:41;;;;;;;5.35;4.38;;;;;;;35.93;24.51;99529.66;5138434;27;20550;-63
2023/07/19 09:20:08;;;;;;;4.13;3.70;;;;;;;36.15;25.37;99521.88;5138371;27;20209;-63
2023/07/19 09:22:35;;;;;;;5.13;4.32;;;;;;;35.79;24.31;99524.38;5138291;27;20045;-64
2023/07/19 09:25:01;;;;;;;4.78;4.18;;;;;;;36.12;23.89;99521.72;5139139;27;20031;-64
2023/07/19 09:27:28;;;;;;;3.85;3.50;;;;;;;36.43;24.32;99516.63;5139317;27;20120;-64
2023/07/19 09:29:53;;;;;;;5.25;3.80;;;;;;;36.49;24.86;99514.47;5143289;27;20043;-63
2023/07/19 09:32:19;;;;;;;5.18;3.75;;;;;;;36.09;24.07;99503.94;5142689;27;20053;-62
2023/07/19 09:34:45;;;;;;;4.65;3.53;;;;;;;35.79;26.46;99513.38;5142905;27;20248;-64
2023/07/19 09:37:11;;;;;;;3.92;3.53;;;;;;;35.58;25.39;99501.53;5142072;27;20027;-63
2023/07/19 09:39:37;;;;;;;5.28;3.67;;;;;;;35.64;24.96;99500.19;5141305;27;20030;-64
2023/07/19 09:42:03;;;;;;;4.70;3.50;;;;;;;35.59;26.26;99495.69;5142330;27;20346;-64
2023/07/19 09:44:30;;;;;;;5.45;3.67;;;;;;;35.54;26.08;99497.84;5142375;27;20348;-63
2023/07/19 09:46:56;;;;;;;4.15;3.75;;;;;;;35.41;26.18;99491.44;5142804;27;20326;-63
2023/07/19 09:49:25;;;;;;;4.53;3.58;;;;;;;35.46;24.95;99494.00;5142626;27;20043;-64
2023/07/19 09:51:54;;;;;;;4.30;3.70;;;;;;;35.60;26.31;99491.00;5142673;27;20066;-64
2023/07/19 09:54:21;;;;;;;3.67;3.35;;;;;;;35.42;28.43;99485.59;5142160;27;20050;-64
2023/07/19 09:56:47;;;;;;;4.22;3.40;;;;;;;35.39;26.65;99479.94;5142559;27;20047;-64
2023/07/19 09:59:50;;;;;;;4.63;4.10;;;;;;;35.44;26.25;99483.31;5142386;27;20104;-64
2023/07/19 10:02:16;;;;;;;4.28;3.85;;;;;;;35.42;26.19;99482.03;5058162;28;20064;-64
2023/07/19 10:04:44;;;;;;;4.68;4.05;;;;;;;35.44;25.35;99475.06;5125464;27;20375;-64
2023/07/19 10:07:12;;;;;;;4.38;3.97;;;;;;;35.42;26.04;99482.84;5141992;27;20047;-63
2023/07/19 10:09:40;;;;;;;5.95;4.55;;;;;;;35.38;26.32;99475.59;5141719;27;20035;-64
2023/07/19 10:12:26;;;;;;;5.10;3.90;;;;;;;35.40;27.04;99465.84;5141954;27;20039;-64
2023/07/19 10:15:02;;;;;;;5.05;4.55;;;;;;;35.21;26.69;99459.91;5141153;27;20300;-64
2023/07/19 10:17:32;;;;;;;5.95;4.15;;;;;;;35.45;27.12;99454.63;5141213;27;20047;-64
2023/07/19 10:20:05;;;;;;;6.57;3.85;;;;;;;35.59;26.12;99459.09;5141617;27;20030;-65
2023/07/19 10:22:47;;;;;;;4.93;3.75;;;;;;;35.65;26.03;99453.03;5141931;27;20035;-64
2023/07/19 10:25:27;;;;;;;4.78;4.30;;;;;;;35.71;25.47;99448.94;5142113;27;20202;-64
2023/07/19 10:27:59;;;;;;;4.40;4.00;;;;;;;35.82;26.42;99447.44;5141329;27;20051;-64
2023/07/19 10:30:46;;;;;;;5.75;4.50;;;;;;;35.90;25.49;99454.00;5141291;27;20259;-64
2023/07/19 10:33:19;;;;;;;4.72;4.03;;;;;;;35.91;25.11;99450.09;5141814;27;20400;-64
2023/07/19 10:35:53;;;;;;;6.43;4.68;;;;;;;35.87;25.00;99442.84;5141676;27;20057;-65
2023/07/19 10:38:27;;;;;;;4.75;4.22;;;;;;;35.85;26.10;99445.13;5141526;27;20038;-64
2023/07/19 10:41:01;;;;;;;4.82;4.30;;;;;;;35.83;25.92;99437.22;5140867;27;20031;-64
2023/07/19 10:43:28;;;;;;;6.97;4.47;;;;;;;35.83;25.47;99440.78;5140644;27;20325;-65
2023/07/19 10:45:55;;;;;;;4.90;3.83;;;;;;;35.85;24.71;99436.88;5141281;27;20046;-64
2023/07/19 10:48:25;;;;;;;5.05;4.35;;;;;;;35.81;25.00;99426.53;5141192;27;20198;-63
2023/07/19 10:50:51;;;;;;;4.30;3.90;;;;;;;35.88;25.31;99425.19;5141471;27;20035;-64
2023/07/19 10:53:16;;;;;;;5.22;4.10;;;;;;;35.85;25.22;99426.66;5141876;27;20099;-64
2023/07/19 10:55:42;;;;;;;4.60;4.10;;;;;;;35.85;25.05;99414.84;5140913;27;20372;-64
2023/07/19 10:58:08;;;;;;;4.35;3.95;;;;;;;35.90;24.13;99426.44;5141065;27;20258;-64
2023/07/19 11:00:35;;;;;;;6.82;3.97;;;;;;;35.89;24.57;99413.00;5140741;27;20041;-62
2023/07/19 11:03:01;;;;;;;5.43;4.43;;;;;;;35.90;25.17;99423.69;5140578;27;20050;-63
2023/07/19 11:05:26;;;;;;;7.90;4.25;;;;;;;35.89;25.37;99410.25;5141350;27;20043;-62
2023/07/19 11:07:52;;;;;;;5.20;3.97;;;;;;;35.82;25.16;99417.13;5141050;27;20083;-62
2023/07/19 11:10:18;;;;;;;4.45;3.78;;;;;;;35.84;24.20;99411.28;5141255;27;20320;-63
2023/07/19 11:12:44;;;;;;;4.75;3.70;;;;;;;35.82;24.10;99402.53;5140855;27;20034;-62
2023/07/19 11:15:09;;;;;;;6.30;4.18;;;;;;;35.89;24.19;99399.25;5140433;27;20217;-62
2023/07/19 11:17:37;;;;;;;5.53;4.32;;;;;;;35.92;24.77;99396.63;5140643;27;20035;-62
2023/07/19 11:20:03;;;;;;;5.57;3.83;;;;;;;35.92;24.24;99398.56;5140766;27;20194;-62
2023/07/19 11:22:29;;;;;;;8.43;4.22;;;;;;;35.95;24.82;99384.09;5140089;27;20035;-62
2023/07/19 11:24:55;;;;;;;5.72;4.25;;;;;;;35.97;25.24;99384.56;5140584;27;20041;-62
2023/07/19 11:27:36;;;;;;;4.75;4.00;;;;;;;36.00;24.46;99375.63;5139844;27;20394;-62
2023/07/19 11:30:03;;;;;;;6.10;4.15;;;;;;;35.97;24.31;99382.63;5139962;27;20035;-62